RYR24J EGCC-EDDF
Flight info
| Callsign | RYR24J |
|---|---|
| Flight time | N/A |
| Altitude | 35000 |
| Route | SONEX L975 DESIG L603 DOLAS DCT NAVPI DCT NOLRU DCT DIXAT DIXAT1A |
| Aircraft | B738/M-SDE2E3FGHIRWXY/LB1 |
Departure
| Time | 2026-05-04 16:46 |
|---|---|
| Airport | Manchester Airport (EGCC) |
Arrival
| Time | N/A |
|---|---|
| Airport | Frankfurt Main Airport (EDDF) |
| Time | Latitude | Longitude | Altitude | Speed | Heading |
|---|---|---|---|---|---|
| 2026-05-04 16:15 | 53.36118 | -2.26745 | 247 ft | 0 kts | 316° |
| 2026-05-04 16:32 | 53.36091 | -2.26701 | 247 ft | 4 kts | 308° |
| 2026-05-04 16:33 | 53.36079 | -2.26623 | 247 ft | 2 kts | 242° |
| 2026-05-04 16:33 | 53.36080 | -2.26620 | 247 ft | 0 kts | 241° |
| 2026-05-04 16:36 | 53.36077 | -2.26630 | 247 ft | 4 kts | 241° |
| 2026-05-04 16:36 | 53.35983 | -2.26735 | 249 ft | 10 kts | 156° |
| 2026-05-04 16:37 | 53.35948 | -2.26717 | 253 ft | 2 kts | 167° |
| 2026-05-04 16:37 | 53.35937 | -2.26713 | 254 ft | 0 kts | 168° |
| 2026-05-04 16:38 | 53.35912 | -2.26705 | 257 ft | 9 kts | 169° |
| 2026-05-04 16:39 | 53.35595 | -2.26628 | 264 ft | 20 kts | 189° |
| 2026-05-04 16:39 | 53.35407 | -2.26963 | 256 ft | 19 kts | 231° |
| 2026-05-04 16:40 | 53.35210 | -2.27229 | 245 ft | 16 kts | 191° |
| 2026-05-04 16:40 | 53.35152 | -2.27249 | 242 ft | 0 kts | 192° |
| 2026-05-04 16:41 | 53.35075 | -2.27275 | 240 ft | 0 kts | 191° |
| 2026-05-04 16:42 | 53.35075 | -2.27276 | 240 ft | 0 kts | 191° |
| 2026-05-04 16:43 | 53.35044 | -2.27286 | 239 ft | 12 kts | 194° |
| 2026-05-04 16:44 | 53.34977 | -2.27384 | 238 ft | 0 kts | 231° |
| 2026-05-04 16:45 | 53.34975 | -2.27389 | 238 ft | 6 kts | 231° |
| 2026-05-04 16:46 | 53.33554 | -2.30318 | 590 ft | 178 kts | 231° |
| 2026-05-04 16:46 | 53.31972 | -2.33611 | 2507 ft | 175 kts | 240° |
| 2026-05-04 16:47 | 53.31780 | -2.37889 | 3233 ft | 215 kts | 294° |
| 2026-05-04 16:47 | 53.34268 | -2.41103 | 3789 ft | 254 kts | 348° |
| 2026-05-04 16:48 | 53.39642 | -2.43576 | 5209 ft | 288 kts | 341° |
| 2026-05-04 16:48 | 53.41521 | -2.44588 | 6185 ft | 278 kts | 341° |
| 2026-05-04 16:49 | 53.45239 | -2.45076 | 7552 ft | 278 kts | 26° |
| 2026-05-04 16:49 | 53.47260 | -2.39832 | 8643 ft | 285 kts | 79° |
| 2026-05-04 16:50 | 53.47970 | -2.33185 | 9691 ft | 292 kts | 78° |
| 2026-05-04 16:50 | 53.48768 | -2.26431 | 10685 ft | 296 kts | 78° |
| 2026-05-04 16:51 | 53.49563 | -2.19618 | 11624 ft | 301 kts | 79° |
| 2026-05-04 16:51 | 53.49924 | -2.16150 | 12081 ft | 303 kts | 80° |
| 2026-05-04 16:51 | 53.50651 | -2.09103 | 12987 ft | 307 kts | 80° |
| 2026-05-04 16:52 | 53.51394 | -2.01961 | 13850 ft | 313 kts | 80° |
| 2026-05-04 16:52 | 53.51763 | -1.98392 | 14251 ft | 315 kts | 81° |
| 2026-05-04 16:53 | 53.51219 | -1.90949 | 14520 ft | 335 kts | 108° |
| 2026-05-04 16:53 | 53.48967 | -1.79269 | 14755 ft | 367 kts | 108° |
| 2026-05-04 16:54 | 53.48180 | -1.75126 | 14830 ft | 376 kts | 108° |
| 2026-05-04 16:55 | 53.44966 | -1.57689 | 15105 ft | 402 kts | 107° |
| 2026-05-04 16:55 | 53.43325 | -1.48696 | 15515 ft | 404 kts | 107° |
| 2026-05-04 16:56 | 53.41669 | -1.39655 | 15948 ft | 406 kts | 107° |
| 2026-05-04 16:56 | 53.39178 | -1.26134 | 16497 ft | 408 kts | 108° |